sensor_id;sensor_type;location;lat;lon;timestamp;P1;durP1;ratioP1;P2;durP2;ratioP2
5460;SDS011;2753;49.196;8.286;2023-09-19T00:01:33;2.93;;;1.20;;
5460;SDS011;2753;49.196;8.286;2023-09-19T00:03:59;4.73;;;1.10;;
5460;SDS011;2753;49.196;8.286;2023-09-19T00:06:27;1.20;;;1.10;;
5460;SDS011;2753;49.196;8.286;2023-09-19T00:08:56;1.80;;;1.70;;
5460;SDS011;2753;49.196;8.286;2023-09-19T00:11:24;3.87;;;1.40;;
5460;SDS011;2753;49.196;8.286;2023-09-19T00:13:51;3.43;;;1.23;;
5460;SDS011;2753;49.196;8.286;2023-09-19T00:16:16;7.60;;;1.30;;
5460;SDS011;2753;49.196;8.286;2023-09-19T00:18:44;3.33;;;1.30;;
5460;SDS011;2753;49.196;8.286;2023-09-19T00:21:10;5.50;;;1.80;;
5460;SDS011;2753;49.196;8.286;2023-09-19T00:23:36;3.90;;;1.67;;
5460;SDS011;2753;49.196;8.286;2023-09-19T00:26:02;6.00;;;1.47;;
5460;SDS011;2753;49.196;8.286;2023-09-19T00:28:29;2.40;;;1.60;;
5460;SDS011;2753;49.196;8.286;2023-09-19T00:30:55;2.53;;;1.30;;
5460;SDS011;2753;49.196;8.286;2023-09-19T00:33:21;7.17;;;1.57;;
5460;SDS011;2753;49.196;8.286;2023-09-19T00:35:50;3.40;;;1.30;;
5460;SDS011;2753;49.196;8.286;2023-09-19T00:38:17;2.90;;;1.50;;
5460;SDS011;2753;49.196;8.286;2023-09-19T00:40:50;2.60;;;1.90;;
5460;SDS011;2753;49.196;8.286;2023-09-19T00:43:19;6.47;;;1.60;;
5460;SDS011;2753;49.196;8.286;2023-09-19T00:45:47;2.93;;;1.37;;
5460;SDS011;2753;49.196;8.286;2023-09-19T00:48:16;6.83;;;1.50;;
5460;SDS011;2753;49.196;8.286;2023-09-19T00:50:42;1.67;;;1.47;;
5460;SDS011;2753;49.196;8.286;2023-09-19T00:53:09;5.57;;;1.50;;
5460;SDS011;2753;49.196;8.286;2023-09-19T00:55:38;3.80;;;1.20;;
5460;SDS011;2753;49.196;8.286;2023-09-19T00:58:07;2.63;;;1.23;;
5460;SDS011;2753;49.196;8.286;2023-09-19T01:00:35;3.67;;;1.30;;
5460;SDS011;2753;49.196;8.286;2023-09-19T01:03:02;5.43;;;1.50;;
5460;SDS011;2753;49.196;8.286;2023-09-19T01:05:28;5.70;;;1.47;;
5460;SDS011;2753;49.196;8.286;2023-09-19T01:07:55;3.17;;;1.33;;
5460;SDS011;2753;49.196;8.286;2023-09-19T01:10:21;3.53;;;1.23;;
5460;SDS011;2753;49.196;8.286;2023-09-19T01:18:43;5.63;;;1.30;;
5460;SDS011;2753;49.196;8.286;2023-09-19T01:31:44;2.50;;;1.23;;
5460;SDS011;2753;49.196;8.286;2023-09-19T01:34:12;4.73;;;1.70;;
5460;SDS011;2753;49.196;8.286;2023-09-19T01:36:38;5.93;;;1.97;;
5460;SDS011;2753;49.196;8.286;2023-09-19T01:39:04;12.40;;;1.83;;
5460;SDS011;2753;49.196;8.286;2023-09-19T01:44:09;4.80;;;1.90;;
5460;SDS011;2753;49.196;8.286;2023-09-19T01:46:43;9.13;;;1.63;;
5460;SDS011;2753;49.196;8.286;2023-09-19T01:49:18;6.13;;;1.87;;
5460;SDS011;2753;49.196;8.286;2023-09-19T01:51:52;5.43;;;2.00;;
5460;SDS011;2753;49.196;8.286;2023-09-19T01:54:24;3.73;;;1.80;;
5460;SDS011;2753;49.196;8.286;2023-09-19T01:57:02;2.60;;;1.40;;
5460;SDS011;2753;49.196;8.286;2023-09-19T01:59:49;1.93;;;1.10;;
5460;SDS011;2753;49.196;8.286;2023-09-19T02:02:19;4.33;;;1.70;;
5460;SDS011;2753;49.196;8.286;2023-09-19T02:04:47;3.03;;;1.37;;
5460;SDS011;2753;49.196;8.286;2023-09-19T02:07:14;7.33;;;1.60;;
5460;SDS011;2753;49.196;8.286;2023-09-19T02:09:40;7.93;;;1.93;;
5460;SDS011;2753;49.196;8.286;2023-09-19T02:12:08;4.30;;;1.63;;
5460;SDS011;2753;49.196;8.286;2023-09-19T02:14:34;3.40;;;1.60;;
5460;SDS011;2753;49.196;8.286;2023-09-19T02:17:01;5.23;;;1.20;;
5460;SDS011;2753;49.196;8.286;2023-09-19T02:19:30;2.30;;;1.37;;
5460;SDS011;2753;49.196;8.286;2023-09-19T02:22:01;5.70;;;1.57;;
5460;SDS011;2753;49.196;8.286;2023-09-19T02:24:33;4.20;;;1.53;;
5460;SDS011;2753;49.196;8.286;2023-09-19T02:26:58;5.17;;;1.60;;
5460;SDS011;2753;49.196;8.286;2023-09-19T02:29:28;12.07;;;2.00;;
5460;SDS011;2753;49.196;8.286;2023-09-19T02:31:54;1.43;;;1.33;;
5460;SDS011;2753;49.196;8.286;2023-09-19T02:34:21;2.47;;;1.63;;
5460;SDS011;2753;49.196;8.286;2023-09-19T02:36:47;5.53;;;1.67;;
5460;SDS011;2753;49.196;8.286;2023-09-19T02:39:13;1.73;;;1.33;;
5460;SDS011;2753;49.196;8.286;2023-09-19T02:41:39;2.63;;;1.57;;
5460;SDS011;2753;49.196;8.286;2023-09-19T02:44:06;4.07;;;1.57;;
5460;SDS011;2753;49.196;8.286;2023-09-19T02:46:32;2.07;;;1.50;;
5460;SDS011;2753;49.196;8.286;2023-09-19T02:48:59;3.83;;;1.57;;
5460;SDS011;2753;49.196;8.286;2023-09-19T02:51:31;1.87;;;1.30;;
5460;SDS011;2753;49.196;8.286;2023-09-19T03:01:49;4.33;;;1.60;;
5460;SDS011;2753;49.196;8.286;2023-09-19T03:04:15;14.47;;;2.23;;
5460;SDS011;2753;49.196;8.286;2023-09-19T03:06:45;8.03;;;1.43;;
5460;SDS011;2753;49.196;8.286;2023-09-19T03:09:11;6.80;;;1.83;;
5460;SDS011;2753;49.196;8.286;2023-09-19T03:11:37;7.10;;;1.87;;
5460;SDS011;2753;49.196;8.286;2023-09-19T03:14:05;4.33;;;1.40;;
5460;SDS011;2753;49.196;8.286;2023-09-19T03:16:31;2.10;;;1.23;;
5460;SDS011;2753;49.196;8.286;2023-09-19T03:18:56;6.07;;;1.60;;
5460;SDS011;2753;49.196;8.286;2023-09-19T03:21:24;3.23;;;1.83;;
5460;SDS011;2753;49.196;8.286;2023-09-19T03:23:50;2.97;;;1.60;;
5460;SDS011;2753;49.196;8.286;2023-09-19T03:26:16;3.77;;;1.80;;
5460;SDS011;2753;49.196;8.286;2023-09-19T03:28:42;5.43;;;1.73;;
5460;SDS011;2753;49.196;8.286;2023-09-19T03:31:08;3.63;;;1.80;;
5460;SDS011;2753;49.196;8.286;2023-09-19T03:33:34;4.30;;;1.53;;
5460;SDS011;2753;49.196;8.286;2023-09-19T03:36:00;1.70;;;1.60;;
5460;SDS011;2753;49.196;8.286;2023-09-19T03:38:29;2.97;;;1.73;;
5460;SDS011;2753;49.196;8.286;2023-09-19T03:40:56;4.60;;;1.80;;
5460;SDS011;2753;49.196;8.286;2023-09-19T03:43:22;2.63;;;2.00;;
5460;SDS011;2753;49.196;8.286;2023-09-19T03:45:47;4.23;;;1.77;;
5460;SDS011;2753;49.196;8.286;2023-09-19T03:48:14;5.63;;;1.63;;
5460;SDS011;2753;49.196;8.286;2023-09-19T03:50:39;7.37;;;2.17;;
5460;SDS011;2753;49.196;8.286;2023-09-19T03:53:05;3.00;;;1.43;;
5460;SDS011;2753;49.196;8.286;2023-09-19T03:55:32;1.97;;;1.50;;
5460;SDS011;2753;49.196;8.286;2023-09-19T03:58:01;3.33;;;1.67;;
5460;SDS011;2753;49.196;8.286;2023-09-19T04:00:27;4.37;;;1.87;;
5460;SDS011;2753;49.196;8.286;2023-09-19T04:02:54;6.93;;;1.57;;
5460;SDS011;2753;49.196;8.286;2023-09-19T04:05:22;8.50;;;1.60;;
5460;SDS011;2753;49.196;8.286;2023-09-19T04:07:48;2.73;;;1.70;;
5460;SDS011;2753;49.196;8.286;2023-09-19T04:10:15;4.20;;;1.70;;
5460;SDS011;2753;49.196;8.286;2023-09-19T04:12:41;4.50;;;1.80;;
5460;SDS011;2753;49.196;8.286;2023-09-19T04:15:19;6.30;;;2.33;;
5460;SDS011;2753;49.196;8.286;2023-09-19T04:17:51;6.43;;;2.13;;
5460;SDS011;2753;49.196;8.286;2023-09-19T04:20:18;7.60;;;2.50;;
5460;SDS011;2753;49.196;8.286;2023-09-19T04:22:45;2.20;;;1.40;;
5460;SDS011;2753;49.196;8.286;2023-09-19T04:25:12;7.17;;;2.23;;
5460;SDS011;2753;49.196;8.286;2023-09-19T04:27:38;4.63;;;1.80;;
5460;SDS011;2753;49.196;8.286;2023-09-19T04:30:04;6.07;;;1.90;;
5460;SDS011;2753;49.196;8.286;2023-09-19T04:32:36;7.30;;;1.53;;
5460;SDS011;2753;49.196;8.286;2023-09-19T04:35:04;3.10;;;2.07;;
5460;SDS011;2753;49.196;8.286;2023-09-19T04:37:33;4.33;;;1.93;;
5460;SDS011;2753;49.196;8.286;2023-09-19T04:40:03;2.07;;;1.90;;
5460;SDS011;2753;49.196;8.286;2023-09-19T04:42:31;8.00;;;2.43;;
5460;SDS011;2753;49.196;8.286;2023-09-19T04:44:57;3.30;;;1.63;;
5460;SDS011;2753;49.196;8.286;2023-09-19T04:47:24;5.47;;;2.33;;
5460;SDS011;2753;49.196;8.286;2023-09-19T04:49:51;5.23;;;2.50;;
5460;SDS011;2753;49.196;8.286;2023-09-19T04:52:17;3.83;;;2.03;;
5460;SDS011;2753;49.196;8.286;2023-09-19T04:54:42;3.60;;;1.73;;
5460;SDS011;2753;49.196;8.286;2023-09-19T04:57:08;4.07;;;1.90;;
5460;SDS011;2753;49.196;8.286;2023-09-19T04:59:33;2.93;;;1.90;;
5460;SDS011;2753;49.196;8.286;2023-09-19T05:01:59;7.03;;;2.30;;
5460;SDS011;2753;49.196;8.286;2023-09-19T05:04:25;8.70;;;1.67;;
5460;SDS011;2753;49.196;8.286;2023-09-19T05:06:50;7.37;;;2.20;;
5460;SDS011;2753;49.196;8.286;2023-09-19T05:09:17;3.03;;;1.97;;
5460;SDS011;2753;49.196;8.286;2023-09-19T05:11:45;5.73;;;1.90;;
5460;SDS011;2753;49.196;8.286;2023-09-19T05:14:19;4.33;;;2.00;;
5460;SDS011;2753;49.196;8.286;2023-09-19T05:16:46;4.40;;;2.30;;
5460;SDS011;2753;49.196;8.286;2023-09-19T05:19:12;5.97;;;1.97;;
5460;SDS011;2753;49.196;8.286;2023-09-19T05:21:37;5.00;;;1.67;;
5460;SDS011;2753;49.196;8.286;2023-09-19T05:24:04;3.50;;;1.83;;
5460;SDS011;2753;49.196;8.286;2023-09-19T05:26:33;5.60;;;1.93;;
5460;SDS011;2753;49.196;8.286;2023-09-19T05:28:59;2.80;;;2.33;;
5460;SDS011;2753;49.196;8.286;2023-09-19T05:31:26;4.73;;;2.17;;
5460;SDS011;2753;49.196;8.286;2023-09-19T05:33:52;5.57;;;2.20;;
5460;SDS011;2753;49.196;8.286;2023-09-19T05:36:20;3.50;;;2.50;;
5460;SDS011;2753;49.196;8.286;2023-09-19T05:38:46;7.53;;;2.20;;
5460;SDS011;2753;49.196;8.286;2023-09-19T05:41:15;8.70;;;1.93;;
5460;SDS011;2753;49.196;8.286;2023-09-19T05:43:41;7.67;;;2.00;;
5460;SDS011;2753;49.196;8.286;2023-09-19T05:46:07;7.37;;;2.00;;
5460;SDS011;2753;49.196;8.286;2023-09-19T05:48:33;8.57;;;2.17;;
5460;SDS011;2753;49.196;8.286;2023-09-19T05:50:59;5.70;;;2.50;;
5460;SDS011;2753;49.196;8.286;2023-09-19T05:53:26;6.00;;;2.03;;
5460;SDS011;2753;49.196;8.286;2023-09-19T05:55:53;6.53;;;2.70;;
5460;SDS011;2753;49.196;8.286;2023-09-19T05:58:20;6.63;;;2.10;;
5460;SDS011;2753;49.196;8.286;2023-09-19T06:00:46;6.50;;;2.80;;
5460;SDS011;2753;49.196;8.286;2023-09-19T06:03:13;5.37;;;2.10;;
5460;SDS011;2753;49.196;8.286;2023-09-19T06:05:40;10.60;;;2.57;;
5460;SDS011;2753;49.196;8.286;2023-09-19T06:08:06;4.70;;;2.10;;
5460;SDS011;2753;49.196;8.286;2023-09-19T06:10:33;9.83;;;2.27;;
5460;SDS011;2753;49.196;8.286;2023-09-19T06:13:00;3.27;;;1.60;;
5460;SDS011;2753;49.196;8.286;2023-09-19T06:15:29;2.60;;;1.50;;
5460;SDS011;2753;49.196;8.286;2023-09-19T06:17:57;10.97;;;2.80;;
5460;SDS011;2753;49.196;8.286;2023-09-19T06:20:30;5.50;;;2.23;;
5460;SDS011;2753;49.196;8.286;2023-09-19T06:22:56;8.50;;;2.27;;
5460;SDS011;2753;49.196;8.286;2023-09-19T06:25:21;6.30;;;2.00;;
5460;SDS011;2753;49.196;8.286;2023-09-19T06:27:48;4.20;;;2.67;;
5460;SDS011;2753;49.196;8.286;2023-09-19T06:30:17;3.10;;;2.23;;
5460;SDS011;2753;49.196;8.286;2023-09-19T06:32:43;8.17;;;2.80;;
5460;SDS011;2753;49.196;8.286;2023-09-19T06:35:09;15.90;;;2.10;;
5460;SDS011;2753;49.196;8.286;2023-09-19T06:37:39;6.80;;;2.40;;
5460;SDS011;2753;49.196;8.286;2023-09-19T06:42:42;4.83;;;1.73;;
5460;SDS011;2753;49.196;8.286;2023-09-19T06:45:13;11.17;;;2.70;;
5460;SDS011;2753;49.196;8.286;2023-09-19T06:47:46;1.83;;;1.73;;
5460;SDS011;2753;49.196;8.286;2023-09-19T06:50:17;6.40;;;1.80;;
5460;SDS011;2753;49.196;8.286;2023-09-19T06:52:45;5.50;;;1.97;;
5460;SDS011;2753;49.196;8.286;2023-09-19T06:55:13;5.03;;;1.73;;
5460;SDS011;2753;49.196;8.286;2023-09-19T06:57:41;3.00;;;1.80;;
5460;SDS011;2753;49.196;8.286;2023-09-19T07:00:12;5.20;;;1.90;;
5460;SDS011;2753;49.196;8.286;2023-09-19T07:03:00;2.70;;;1.63;;
5460;SDS011;2753;49.196;8.286;2023-09-19T07:05:29;5.07;;;2.37;;
5460;SDS011;2753;49.196;8.286;2023-09-19T07:07:56;2.13;;;1.60;;
5460;SDS011;2753;49.196;8.286;2023-09-19T07:10:25;4.10;;;2.00;;
5460;SDS011;2753;49.196;8.286;2023-09-19T07:13:04;3.80;;;1.50;;
5460;SDS011;2753;49.196;8.286;2023-09-19T07:15:38;5.07;;;2.13;;
5460;SDS011;2753;49.196;8.286;2023-09-19T07:18:06;3.80;;;1.90;;
5460;SDS011;2753;49.196;8.286;2023-09-19T07:20:34;2.67;;;1.90;;
5460;SDS011;2753;49.196;8.286;2023-09-19T07:23:03;4.17;;;1.30;;
5460;SDS011;2753;49.196;8.286;2023-09-19T07:25:29;4.73;;;2.17;;
5460;SDS011;2753;49.196;8.286;2023-09-19T07:27:59;1.90;;;1.33;;
5460;SDS011;2753;49.196;8.286;2023-09-19T07:30:25;6.87;;;1.83;;
5460;SDS011;2753;49.196;8.286;2023-09-19T07:32:52;1.57;;;1.47;;
5460;SDS011;2753;49.196;8.286;2023-09-19T07:35:18;4.30;;;1.80;;
5460;SDS011;2753;49.196;8.286;2023-09-19T07:37:48;2.57;;;1.70;;
5460;SDS011;2753;49.196;8.286;2023-09-19T07:40:18;4.10;;;1.60;;
5460;SDS011;2753;49.196;8.286;2023-09-19T07:42:45;5.43;;;2.10;;
5460;SDS011;2753;49.196;8.286;2023-09-19T07:45:12;6.50;;;1.60;;
5460;SDS011;2753;49.196;8.286;2023-09-19T07:47:48;5.53;;;1.60;;
5460;SDS011;2753;49.196;8.286;2023-09-19T07:50:18;5.10;;;1.53;;
5460;SDS011;2753;49.196;8.286;2023-09-19T07:52:45;4.43;;;1.43;;
5460;SDS011;2753;49.196;8.286;2023-09-19T07:55:11;3.17;;;1.63;;
5460;SDS011;2753;49.196;8.286;2023-09-19T07:57:41;4.63;;;1.50;;
5460;SDS011;2753;49.196;8.286;2023-09-19T08:00:07;4.37;;;1.90;;
5460;SDS011;2753;49.196;8.286;2023-09-19T08:02:38;8.67;;;1.77;;
5460;SDS011;2753;49.196;8.286;2023-09-19T08:05:05;2.53;;;1.30;;
5460;SDS011;2753;49.196;8.286;2023-09-19T08:07:34;2.50;;;1.60;;
5460;SDS011;2753;49.196;8.286;2023-09-19T08:10:13;3.50;;;1.50;;
5460;SDS011;2753;49.196;8.286;2023-09-19T08:12:40;1.77;;;1.53;;
5460;SDS011;2753;49.196;8.286;2023-09-19T08:15:17;2.07;;;1.80;;
5460;SDS011;2753;49.196;8.286;2023-09-19T08:17:46;2.80;;;1.60;;
5460;SDS011;2753;49.196;8.286;2023-09-19T08:20:13;3.70;;;2.00;;
5460;SDS011;2753;49.196;8.286;2023-09-19T08:22:47;11.33;;;1.50;;
5460;SDS011;2753;49.196;8.286;2023-09-19T08:25:17;4.70;;;1.80;;
5460;SDS011;2753;49.196;8.286;2023-09-19T08:27:46;6.30;;;1.83;;
5460;SDS011;2753;49.196;8.286;2023-09-19T08:30:13;2.10;;;1.50;;
5460;SDS011;2753;49.196;8.286;2023-09-19T08:32:40;1.80;;;1.40;;
5460;SDS011;2753;49.196;8.286;2023-09-19T08:35:07;2.40;;;1.30;;
5460;SDS011;2753;49.196;8.286;2023-09-19T08:37:34;3.53;;;1.80;;
5460;SDS011;2753;49.196;8.286;2023-09-19T08:40:00;5.97;;;1.93;;
5460;SDS011;2753;49.196;8.286;2023-09-19T08:42:26;8.93;;;2.70;;
5460;SDS011;2753;49.196;8.286;2023-09-19T08:44:52;5.30;;;2.30;;
5460;SDS011;2753;49.196;8.286;2023-09-19T08:47:23;3.20;;;2.20;;
5460;SDS011;2753;49.196;8.286;2023-09-19T08:52:26;4.40;;;2.00;;
5460;SDS011;2753;49.196;8.286;2023-09-19T08:54:58;4.93;;;1.63;;
5460;SDS011;2753;49.196;8.286;2023-09-19T08:57:29;7.20;;;1.90;;
5460;SDS011;2753;49.196;8.286;2023-09-19T09:00:02;2.60;;;1.40;;
5460;SDS011;2753;49.196;8.286;2023-09-19T09:02:39;2.93;;;1.80;;
5460;SDS011;2753;49.196;8.286;2023-09-19T09:05:11;3.23;;;2.07;;
5460;SDS011;2753;49.196;8.286;2023-09-19T09:07:37;10.80;;;1.93;;
5460;SDS011;2753;49.196;8.286;2023-09-19T09:10:04;5.53;;;2.03;;
5460;SDS011;2753;49.196;8.286;2023-09-19T09:12:31;7.40;;;1.97;;
5460;SDS011;2753;49.196;8.286;2023-09-19T09:15:01;3.93;;;1.90;;
5460;SDS011;2753;49.196;8.286;2023-09-19T09:17:29;2.30;;;1.80;;
5460;SDS011;2753;49.196;8.286;2023-09-19T09:19:58;1.93;;;1.80;;
5460;SDS011;2753;49.196;8.286;2023-09-19T09:22:23;5.07;;;1.73;;
5460;SDS011;2753;49.196;8.286;2023-09-19T09:24:54;2.40;;;1.53;;
5460;SDS011;2753;49.196;8.286;2023-09-19T09:27:26;2.83;;;1.93;;
5460;SDS011;2753;49.196;8.286;2023-09-19T09:29:52;3.70;;;1.60;;
5460;SDS011;2753;49.196;8.286;2023-09-19T09:32:23;4.63;;;1.63;;
5460;SDS011;2753;49.196;8.286;2023-09-19T09:34:57;3.13;;;1.57;;
5460;SDS011;2753;49.196;8.286;2023-09-19T09:37:24;6.93;;;1.57;;
5460;SDS011;2753;49.196;8.286;2023-09-19T09:39:56;5.63;;;1.80;;
5460;SDS011;2753;49.196;8.286;2023-09-19T09:42:30;6.60;;;1.83;;
5460;SDS011;2753;49.196;8.286;2023-09-19T09:45:12;1.57;;;1.47;;
5460;SDS011;2753;49.196;8.286;2023-09-19T09:47:46;5.70;;;1.97;;
5460;SDS011;2753;49.196;8.286;2023-09-19T09:50:31;5.80;;;1.57;;
5460;SDS011;2753;49.196;8.286;2023-09-19T09:53:46;1.33;;;1.23;;
5460;SDS011;2753;49.196;8.286;2023-09-19T10:01:05;2.60;;;1.37;;
5460;SDS011;2753;49.196;8.286;2023-09-19T10:03:37;5.27;;;1.50;;
5460;SDS011;2753;49.196;8.286;2023-09-19T10:06:11;7.67;;;1.80;;
5460;SDS011;2753;49.196;8.286;2023-09-19T10:11:38;4.30;;;1.40;;
5460;SDS011;2753;49.196;8.286;2023-09-19T10:14:08;2.10;;;1.27;;
5460;SDS011;2753;49.196;8.286;2023-09-19T10:16:35;4.60;;;1.53;;
5460;SDS011;2753;49.196;8.286;2023-09-19T10:19:20;2.50;;;1.17;;
5460;SDS011;2753;49.196;8.286;2023-09-19T10:21:55;7.30;;;1.57;;
5460;SDS011;2753;49.196;8.286;2023-09-19T10:24:25;11.53;;;1.73;;
5460;SDS011;2753;49.196;8.286;2023-09-19T10:26:53;1.27;;;1.03;;
5460;SDS011;2753;49.196;8.286;2023-09-19T10:29:20;1.20;;;1.00;;
5460;SDS011;2753;49.196;8.286;2023-09-19T10:31:49;3.20;;;1.37;;
5460;SDS011;2753;49.196;8.286;2023-09-19T10:34:18;1.77;;;1.17;;
5460;SDS011;2753;49.196;8.286;2023-09-19T10:36:45;2.70;;;1.47;;
5460;SDS011;2753;49.196;8.286;2023-09-19T10:39:15;2.53;;;1.50;;
5460;SDS011;2753;49.196;8.286;2023-09-19T10:41:51;1.70;;;1.30;;
5460;SDS011;2753;49.196;8.286;2023-09-19T10:44:24;2.80;;;1.50;;
5460;SDS011;2753;49.196;8.286;2023-09-19T10:46:51;5.23;;;1.60;;
5460;SDS011;2753;49.196;8.286;2023-09-19T10:49:21;5.40;;;1.57;;
5460;SDS011;2753;49.196;8.286;2023-09-19T10:51:48;4.33;;;1.37;;
5460;SDS011;2753;49.196;8.286;2023-09-19T10:54:18;2.63;;;1.60;;
5460;SDS011;2753;49.196;8.286;2023-09-19T10:56:51;4.23;;;1.30;;
5460;SDS011;2753;49.196;8.286;2023-09-19T10:59:19;1.93;;;1.47;;
5460;SDS011;2753;49.196;8.286;2023-09-19T11:01:55;5.87;;;1.60;;
5460;SDS011;2753;49.196;8.286;2023-09-19T11:07:05;5.37;;;1.40;;
5460;SDS011;2753;49.196;8.286;2023-09-19T11:09:51;5.47;;;1.53;;
5460;SDS011;2753;49.196;8.286;2023-09-19T11:14:54;6.57;;;1.50;;
5460;SDS011;2753;49.196;8.286;2023-09-19T11:33:17;3.47;;;1.50;;
5460;SDS011;2753;49.196;8.286;2023-09-19T11:44:38;9.63;;;1.70;;
5460;SDS011;2753;49.196;8.286;2023-09-19T11:49:17;3.73;;;1.40;;
5460;SDS011;2753;49.196;8.286;2023-09-19T11:51:48;3.93;;;1.50;;
5460;SDS011;2753;49.196;8.286;2023-09-19T11:54:19;3.23;;;1.70;;
5460;SDS011;2753;49.196;8.286;2023-09-19T11:56:48;1.77;;;1.10;;
5460;SDS011;2753;49.196;8.286;2023-09-19T11:59:22;1.43;;;1.07;;
5460;SDS011;2753;49.196;8.286;2023-09-19T12:01:52;1.67;;;1.17;;
5460;SDS011;2753;49.196;8.286;2023-09-19T12:04:41;2.83;;;1.60;;
5460;SDS011;2753;49.196;8.286;2023-09-19T12:07:14;2.03;;;1.20;;
5460;SDS011;2753;49.196;8.286;2023-09-19T12:09:44;2.03;;;1.10;;
5460;SDS011;2753;49.196;8.286;2023-09-19T12:14:49;1.43;;;0.93;;
5460;SDS011;2753;49.196;8.286;2023-09-19T12:17:16;4.80;;;2.10;;
5460;SDS011;2753;49.196;8.286;2023-09-19T12:19:52;3.50;;;1.60;;
5460;SDS011;2753;49.196;8.286;2023-09-19T12:22:18;3.43;;;1.20;;
5460;SDS011;2753;49.196;8.286;2023-09-19T12:24:47;2.93;;;1.10;;
5460;SDS011;2753;49.196;8.286;2023-09-19T12:27:15;1.10;;;0.90;;
5460;SDS011;2753;49.196;8.286;2023-09-19T12:29:45;5.83;;;1.37;;
5460;SDS011;2753;49.196;8.286;2023-09-19T12:32:15;1.30;;;1.20;;
5460;SDS011;2753;49.196;8.286;2023-09-19T12:34:52;2.70;;;1.17;;
5460;SDS011;2753;49.196;8.286;2023-09-19T12:37:19;1.10;;;0.97;;
5460;SDS011;2753;49.196;8.286;2023-09-19T12:40:03;1.30;;;1.13;;
5460;SDS011;2753;49.196;8.286;2023-09-19T12:42:53;2.30;;;1.30;;
5460;SDS011;2753;49.196;8.286;2023-09-19T12:45:32;3.97;;;1.40;;
5460;SDS011;2753;49.196;8.286;2023-09-19T12:48:19;1.63;;;1.20;;
5460;SDS011;2753;49.196;8.286;2023-09-19T12:51:06;3.57;;;1.73;;
5460;SDS011;2753;49.196;8.286;2023-09-19T12:53:41;2.10;;;1.30;;
5460;SDS011;2753;49.196;8.286;2023-09-19T12:56:15;1.33;;;1.23;;
5460;SDS011;2753;49.196;8.286;2023-09-19T12:58:52;6.53;;;1.90;;
5460;SDS011;2753;49.196;8.286;2023-09-19T13:01:28;3.50;;;1.43;;
5460;SDS011;2753;49.196;8.286;2023-09-19T13:04:13;4.93;;;1.30;;
5460;SDS011;2753;49.196;8.286;2023-09-19T13:06:58;2.80;;;1.60;;
5460;SDS011;2753;49.196;8.286;2023-09-19T13:09:27;1.33;;;1.23;;
5460;SDS011;2753;49.196;8.286;2023-09-19T13:12:03;1.73;;;1.27;;
5460;SDS011;2753;49.196;8.286;2023-09-19T13:14:30;3.13;;;1.03;;
5460;SDS011;2753;49.196;8.286;2023-09-19T13:16:59;4.00;;;1.30;;
5460;SDS011;2753;49.196;8.286;2023-09-19T13:19:57;2.50;;;1.33;;
5460;SDS011;2753;49.196;8.286;2023-09-19T13:22:38;1.53;;;1.40;;
5460;SDS011;2753;49.196;8.286;2023-09-19T13:25:16;4.53;;;1.77;;
5460;SDS011;2753;49.196;8.286;2023-09-19T13:27:46;2.90;;;1.27;;
5460;SDS011;2753;49.196;8.286;2023-09-19T13:30:16;1.50;;;1.20;;
5460;SDS011;2753;49.196;8.286;2023-09-19T13:32:43;8.87;;;1.40;;
5460;SDS011;2753;49.196;8.286;2023-09-19T13:35:09;4.63;;;1.30;;
5460;SDS011;2753;49.196;8.286;2023-09-19T13:37:35;2.87;;;1.37;;
5460;SDS011;2753;49.196;8.286;2023-09-19T13:40:08;3.67;;;1.40;;
5460;SDS011;2753;49.196;8.286;2023-09-19T13:42:34;2.60;;;0.93;;
5460;SDS011;2753;49.196;8.286;2023-09-19T13:45:04;4.50;;;1.20;;
5460;SDS011;2753;49.196;8.286;2023-09-19T13:47:30;3.27;;;1.20;;
5460;SDS011;2753;49.196;8.286;2023-09-19T13:49:57;2.43;;;1.40;;
5460;SDS011;2753;49.196;8.286;2023-09-19T13:52:24;1.77;;;1.30;;
5460;SDS011;2753;49.196;8.286;2023-09-19T13:54:53;1.97;;;1.10;;
5460;SDS011;2753;49.196;8.286;2023-09-19T13:57:21;1.50;;;1.40;;
5460;SDS011;2753;49.196;8.286;2023-09-19T13:59:47;2.20;;;1.20;;
5460;SDS011;2753;49.196;8.286;2023-09-19T14:02:13;2.33;;;1.20;;
5460;SDS011;2753;49.196;8.286;2023-09-19T14:04:40;5.60;;;1.10;;
5460;SDS011;2753;49.196;8.286;2023-09-19T14:07:06;1.30;;;1.20;;
5460;SDS011;2753;49.196;8.286;2023-09-19T14:09:32;4.07;;;1.10;;
5460;SDS011;2753;49.196;8.286;2023-09-19T14:11:58;4.83;;;1.20;;
5460;SDS011;2753;49.196;8.286;2023-09-19T14:14:24;1.20;;;0.97;;
5460;SDS011;2753;49.196;8.286;2023-09-19T14:16:50;2.20;;;1.40;;
5460;SDS011;2753;49.196;8.286;2023-09-19T14:19:18;1.80;;;1.00;;
5460;SDS011;2753;49.196;8.286;2023-09-19T14:21:43;1.87;;;1.70;;
5460;SDS011;2753;49.196;8.286;2023-09-19T14:24:09;3.23;;;2.07;;
5460;SDS011;2753;49.196;8.286;2023-09-19T14:26:36;1.53;;;1.43;;
5460;SDS011;2753;49.196;8.286;2023-09-19T14:29:02;2.27;;;1.20;;
5460;SDS011;2753;49.196;8.286;2023-09-19T14:31:28;1.10;;;1.00;;
5460;SDS011;2753;49.196;8.286;2023-09-19T14:33:54;1.53;;;1.10;;
5460;SDS011;2753;49.196;8.286;2023-09-19T14:36:21;2.87;;;1.33;;
5460;SDS011;2753;49.196;8.286;2023-09-19T14:38:52;1.57;;;1.20;;
5460;SDS011;2753;49.196;8.286;2023-09-19T14:41:24;1.50;;;1.40;;
5460;SDS011;2753;49.196;8.286;2023-09-19T14:43:54;2.60;;;1.10;;
5460;SDS011;2753;49.196;8.286;2023-09-19T14:46:22;1.83;;;1.20;;
5460;SDS011;2753;49.196;8.286;2023-09-19T14:48:50;1.87;;;1.10;;
5460;SDS011;2753;49.196;8.286;2023-09-19T14:51:19;2.10;;;0.93;;
5460;SDS011;2753;49.196;8.286;2023-09-19T14:53:46;1.10;;;1.00;;
5460;SDS011;2753;49.196;8.286;2023-09-19T14:56:12;0.80;;;0.80;;
5460;SDS011;2753;49.196;8.286;2023-09-19T14:58:42;1.20;;;1.00;;
5460;SDS011;2753;49.196;8.286;2023-09-19T15:01:09;1.30;;;1.17;;
5460;SDS011;2753;49.196;8.286;2023-09-19T15:03:35;2.07;;;1.10;;
5460;SDS011;2753;49.196;8.286;2023-09-19T15:06:02;5.40;;;1.13;;
5460;SDS011;2753;49.196;8.286;2023-09-19T15:08:35;1.30;;;1.20;;
5460;SDS011;2753;49.196;8.286;2023-09-19T15:11:05;3.93;;;1.20;;
5460;SDS011;2753;49.196;8.286;2023-09-19T15:13:35;1.03;;;0.90;;
5460;SDS011;2753;49.196;8.286;2023-09-19T15:16:02;2.20;;;0.90;;
5460;SDS011;2753;49.196;8.286;2023-09-19T15:18:28;1.10;;;0.93;;
5460;SDS011;2753;49.196;8.286;2023-09-19T15:21:02;1.30;;;1.20;;
5460;SDS011;2753;49.196;8.286;2023-09-19T15:23:38;8.37;;;1.17;;
5460;SDS011;2753;49.196;8.286;2023-09-19T15:26:05;2.90;;;1.30;;
5460;SDS011;2753;49.196;8.286;2023-09-19T15:28:33;1.10;;;0.97;;
5460;SDS011;2753;49.196;8.286;2023-09-19T15:31:02;1.17;;;1.00;;
5460;SDS011;2753;49.196;8.286;2023-09-19T15:33:36;1.93;;;1.03;;
5460;SDS011;2753;49.196;8.286;2023-09-19T15:38:50;1.10;;;0.90;;
5460;SDS011;2753;49.196;8.286;2023-09-19T15:41:35;1.20;;;1.10;;
5460;SDS011;2753;49.196;8.286;2023-09-19T16:05:37;6.30;;;1.10;;
5460;SDS011;2753;49.196;8.286;2023-09-19T16:08:04;5.73;;;1.23;;
5460;SDS011;2753;49.196;8.286;2023-09-19T16:10:36;2.77;;;1.07;;
5460;SDS011;2753;49.196;8.286;2023-09-19T16:13:04;1.87;;;1.23;;
5460;SDS011;2753;49.196;8.286;2023-09-19T16:15:30;1.60;;;0.70;;
5460;SDS011;2753;49.196;8.286;2023-09-19T16:17:56;5.57;;;0.77;;
5460;SDS011;2753;49.196;8.286;2023-09-19T16:20:21;2.03;;;0.90;;
5460;SDS011;2753;49.196;8.286;2023-09-19T16:22:48;1.23;;;1.10;;
5460;SDS011;2753;49.196;8.286;2023-09-19T16:25:14;1.80;;;1.20;;
5460;SDS011;2753;49.196;8.286;2023-09-19T16:27:39;2.50;;;1.23;;
5460;SDS011;2753;49.196;8.286;2023-09-19T16:30:06;1.30;;;1.20;;
5460;SDS011;2753;49.196;8.286;2023-09-19T16:32:34;4.57;;;1.30;;
5460;SDS011;2753;49.196;8.286;2023-09-19T16:35:01;1.20;;;1.10;;
5460;SDS011;2753;49.196;8.286;2023-09-19T16:37:27;4.97;;;0.80;;
5460;SDS011;2753;49.196;8.286;2023-09-19T16:39:53;0.80;;;0.60;;
5460;SDS011;2753;49.196;8.286;2023-09-19T16:42:19;2.50;;;0.93;;
5460;SDS011;2753;49.196;8.286;2023-09-19T16:44:46;1.33;;;1.10;;
5460;SDS011;2753;49.196;8.286;2023-09-19T16:47:11;1.03;;;0.80;;
5460;SDS011;2753;49.196;8.286;2023-09-19T16:49:37;1.10;;;1.00;;
5460;SDS011;2753;49.196;8.286;2023-09-19T16:52:03;1.93;;;1.30;;
5460;SDS011;2753;49.196;8.286;2023-09-19T16:54:29;2.80;;;1.40;;
5460;SDS011;2753;49.196;8.286;2023-09-19T16:56:54;1.27;;;1.17;;
5460;SDS011;2753;49.196;8.286;2023-09-19T16:59:20;2.17;;;0.90;;
5460;SDS011;2753;49.196;8.286;2023-09-19T17:01:48;2.23;;;1.30;;
5460;SDS011;2753;49.196;8.286;2023-09-19T17:04:15;2.17;;;1.17;;
5460;SDS011;2753;49.196;8.286;2023-09-19T17:06:41;2.50;;;1.37;;